SAAPSABE

Guest
Details From SAAP - GENERAL URQUIZA
To SABE - Aeroparque Jorge Newbery
Flight Number -
Tags decoded
Created
Modified
Stats Distance 202 nm / 375 km
Max Altitude 0 ft / 0 m
Waypoints 4
Social Downloads 0
Likes 0
Share VATSIM

Download

Looking for another format? Having issues loading an existing format? Contact us
Advertisement - Login to hide

Notes

Requested: SAAP BIVAN PEDRO VANAR SABE

Route

SAAP PEDRO VANAR SABE

ID Type Via Altitude Latitude Longitude Leg Dist Tot Dist Heading (true) Name
O SAAP APT - 0 ft / 0 m -31.79478˚ -60.48035˚ - 0 nm - GENERAL URQUIZA
PEDRO FIX - 0 ft / 0 m -33.70111˚ -59.66694˚ 121 nm 121 nm 160° / 160° -
VANAR FIX - 0 ft / 0 m -34.32444˚ -58.76222˚ 58 nm 180 nm 130° / 129° -
O SABE APT - 0 ft / 0 m -34.55941˚ -58.41575˚ 22 nm 202 nm 130° / 129° Aeroparque Jorge Newbery

Altitude Profile

Advertisement - Login to hide

Weather


0- 5 10 15 20 25 30 35+ Temperature / ° C

Clouds and Precipitation
Forecast for 2018-05-24 12:00 UTC. Updated an hour ago

Ground ~20,000 ft ~40,000 ft Winds

SAAP

Details ICAO SAAP (PRA)
Name GENERAL URQUIZA
Region Argentina
Timezone America/Argentina/Cordoba (UTC-3.0)
Stats Elevation 243 ft / 74 m (AMSL)
Location -31.794778° -60.480347°
Runways 1
Magnetic Variation 8.800° W

METAR

SAAP 241230Z 00000KT 4000 FG NSC 08/07 Q1026

Decode

TAF

Not found

Departure Runways

ID Width Length Bearing (true) Bearing (mag) Surface Threshold Offset Overrun Length
01 147 ft / 45 m 6,906 ft / 2,105 m 8.39° 17.19° Asphalt 0 ft / 0 m 820 ft / 250 m
19 147 ft / 45 m 6,906 ft / 2,105 m 188.39° 197.19° Asphalt 0 ft / 0 m 820 ft / 250 m

SABE

Details ICAO SABE (AEP)
Name Aeroparque Jorge Newbery
Region Argentina
Timezone Unknown (UTC+0.0)
Stats Elevation 17 ft / 5 m (AMSL)
Location -34.559414° -58.415749°
Runways 1
Magnetic Variation 9.054° W

METAR

SABE 241200Z 27005KT 220V310 CAVOK 14/06 Q1025 NOSIG

Decode

TAF

TAF SABE 241100Z 2412/2512 28010KT CAVOK TX21/2418Z TN12/2510Z BECMG 2416/2418 34010KT 9999 SCT040

Decode

Destination Runways

ID Width Length Bearing (true) Bearing (mag) Surface Threshold Offset Overrun Length
13 131 ft / 40 m 6,882 ft / 2,098 m 123.87° 132.92° Concrete 0 ft / 0 m 791 ft / 241 m
31 131 ft / 40 m 6,882 ft / 2,098 m 303.86° 312.91° Concrete 991 ft / 302 m 0 ft / 0 m

Approach Navaids

Runway Type Ident Frequency Range Bearing (true) Bearing (mag) Slope Elevation
13 Localiser AE 109.50 MHz 18 nm / 33 km 123.95° 133.01° - 17 ft / 5 m (AMSL)
13 Glidescope AE 109.50 MHz 10 nm / 19 km 124.47° 133.52° 3.00° 17 ft / 5 m (AMSL)
13 DME AE 109.50 MHz 18 nm / 33 km - - - 17 ft / 5 m (AMSL)

Popular Alternatives